createdAt,value
2023-05-14T00:01:32.321Z,41.23
2023-05-14T00:04:01.317Z,38.37
2023-05-14T00:06:30.363Z,43.37
2023-05-14T00:08:59.276Z,40.60
2023-05-14T00:11:28.387Z,43.40
2023-05-14T00:13:58.958Z,51.47
2023-05-14T00:16:27.973Z,45.63
2023-05-14T00:18:56.948Z,44.03
2023-05-14T00:21:25.850Z,43.90
2023-05-14T00:23:54.790Z,39.00
2023-05-14T00:26:23.601Z,40.70
2023-05-14T00:28:52.755Z,36.30
2023-05-14T00:31:23.124Z,41.67
2023-05-14T00:33:52.206Z,37.10
2023-05-14T00:36:21.132Z,44.23
2023-05-14T00:38:50.422Z,41.27
2023-05-14T00:41:19.273Z,42.47
2023-05-14T00:43:48.047Z,38.17
2023-05-14T00:46:17.911Z,36.70
2023-05-14T00:48:48.629Z,37.17
2023-05-14T00:51:18.025Z,48.77
2023-05-14T00:53:47.346Z,47.60
2023-05-14T00:56:17.365Z,44.67
2023-05-14T00:58:46.468Z,45.83
2023-05-14T01:01:16.855Z,47.67
2023-05-14T01:03:47.729Z,51.00
2023-05-14T01:06:22.374Z,52.63
2023-05-14T01:08:57.415Z,45.63
2023-05-14T01:11:54.004Z,52.13
2023-05-14T01:14:26.331Z,52.20
2023-05-14T01:17:00.269Z,50.03
2023-05-14T01:19:38.762Z,56.77
2023-05-14T01:22:09.254Z,64.47
2023-05-14T01:24:38.329Z,64.87
2023-05-14T01:27:14.884Z,57.17
2023-05-14T01:29:49.617Z,62.23
2023-05-14T01:32:20.841Z,76.30
2023-05-14T01:34:51.986Z,70.60
2023-05-14T01:37:23.271Z,64.43
2023-05-14T01:39:53.422Z,56.03
2023-05-14T01:42:40.982Z,53.63
2023-05-14T01:45:11.110Z,54.53
2023-05-14T01:47:40.162Z,53.80
2023-05-14T01:50:09.510Z,54.93
2023-05-14T01:52:39.885Z,52.93
2023-05-14T01:55:09.711Z,55.90
2023-05-14T01:57:38.608Z,54.63
2023-05-14T02:00:09.584Z,53.57
2023-05-14T02:02:44.134Z,53.20
2023-05-14T02:05:15.424Z,53.23
2023-05-14T02:07:45.964Z,57.20
2023-05-14T02:10:15.617Z,55.73
2023-05-14T02:12:44.443Z,53.90
2023-05-14T02:15:13.902Z,56.77
2023-05-14T02:17:42.838Z,53.80
2023-05-14T02:20:14.017Z,57.07
2023-05-14T02:22:45.830Z,76.07
2023-05-14T02:25:16.196Z,60.17
2023-05-14T02:27:45.630Z,65.93
2023-05-14T02:30:15.083Z,53.10
2023-05-14T02:32:44.366Z,56.93
2023-05-14T02:35:13.252Z,54.33
2023-05-14T02:37:42.178Z,57.13
2023-05-14T02:40:11.950Z,61.33
2023-05-14T02:43:00.850Z,58.17
2023-05-14T02:45:29.739Z,58.10
2023-05-14T02:47:58.815Z,52.93
2023-05-14T02:50:27.701Z,50.97
2023-05-14T02:52:56.613Z,53.40
2023-05-14T02:55:26.712Z,49.47
2023-05-14T02:57:56.985Z,50.10
2023-05-14T03:00:27.577Z,52.17
2023-05-14T03:02:57.155Z,45.60
2023-05-14T03:05:26.337Z,48.47
2023-05-14T03:07:55.217Z,46.97
2023-05-14T03:10:24.471Z,48.03
2023-05-14T03:12:53.640Z,54.50
2023-05-14T03:15:22.650Z,56.93
2023-05-14T03:17:53.539Z,64.50
2023-05-14T03:20:22.706Z,51.43
2023-05-14T03:22:51.803Z,50.33
2023-05-14T03:25:20.675Z,45.20
2023-05-14T03:27:49.728Z,43.77
2023-05-14T03:30:18.745Z,45.17
2023-05-14T03:32:47.729Z,50.37
2023-05-14T03:35:18.468Z,48.70
2023-05-14T03:37:47.448Z,51.53
2023-05-14T03:40:16.383Z,50.50
2023-05-14T03:42:45.635Z,51.33
2023-05-14T03:45:14.495Z,50.03
2023-05-14T03:47:43.941Z,54.80
2023-05-14T03:50:13.731Z,43.60
2023-05-14T03:52:44.693Z,48.73
2023-05-14T03:55:13.770Z,43.23
2023-05-14T03:57:42.608Z,40.97
2023-05-14T04:00:14.260Z,40.00
2023-05-14T04:02:45.835Z,43.70
2023-05-14T04:05:14.974Z,41.03
2023-05-14T04:07:46.413Z,41.93
2023-05-14T04:10:15.457Z,43.30
2023-05-14T04:12:44.253Z,46.73
2023-05-14T04:15:13.880Z,46.57
2023-05-14T04:17:42.851Z,44.37
2023-05-14T04:20:12.387Z,43.23
2023-05-14T04:22:42.044Z,42.03
2023-05-14T04:25:12.477Z,40.10
2023-05-14T04:27:41.899Z,39.50
2023-05-14T04:30:12.063Z,39.47
2023-05-14T04:32:40.999Z,36.57
2023-05-14T04:35:10.794Z,36.30
2023-05-14T04:37:40.614Z,35.73
2023-05-14T04:40:14.578Z,34.77
2023-05-14T04:42:43.949Z,36.93
2023-05-14T04:45:14.874Z,37.20
2023-05-14T04:47:45.239Z,36.80
2023-05-14T04:50:14.448Z,37.37
2023-05-14T04:52:43.465Z,37.37
2023-05-14T04:55:13.731Z,43.07
2023-05-14T04:57:42.648Z,38.60
2023-05-14T05:00:13.363Z,39.23
2023-05-14T05:02:42.151Z,37.47
2023-05-14T05:05:11.760Z,42.23
2023-05-14T05:07:40.630Z,43.13
2023-05-14T05:10:10.728Z,39.20
2023-05-14T05:12:41.037Z,38.60
2023-05-14T05:15:10.954Z,39.40
2023-05-14T05:17:40.044Z,37.53
2023-05-14T05:20:10.358Z,36.70
2023-05-14T05:22:39.318Z,37.57
2023-05-14T05:25:09.258Z,38.90
2023-05-14T05:27:38.121Z,37.50
2023-05-14T05:30:10.048Z,36.93
2023-05-14T05:32:39.192Z,34.87
2023-05-14T05:35:08.732Z,36.47
2023-05-14T05:37:37.664Z,41.50
2023-05-14T05:40:07.542Z,40.63
2023-05-14T05:42:36.658Z,37.80
2023-05-14T05:45:06.217Z,55.27
2023-05-14T05:47:36.454Z,60.27
2023-05-14T05:50:05.896Z,60.33
2023-05-14T05:52:34.746Z,54.87
2023-05-14T05:55:03.881Z,36.33
2023-05-14T05:57:32.852Z,34.67
2023-05-14T06:00:05.049Z,44.17
2023-05-14T06:02:43.487Z,36.20
2023-05-14T06:05:31.327Z,30.20
2023-05-14T06:08:06.868Z,30.70
2023-05-14T06:10:36.513Z,30.37
2023-05-14T06:13:05.369Z,29.80
2023-05-14T06:15:34.313Z,26.60
2023-05-14T06:18:04.851Z,27.90
2023-05-14T06:20:33.693Z,28.23
2023-05-14T06:23:02.556Z,32.60
2023-05-14T06:25:31.349Z,27.13
2023-05-14T06:28:00.315Z,27.43
2023-05-14T06:30:29.222Z,26.30
2023-05-14T06:32:58.393Z,26.37
2023-05-14T06:35:28.667Z,25.93
2023-05-14T06:38:16.402Z,26.33
2023-05-14T06:40:45.748Z,25.90
2023-05-14T06:43:14.621Z,27.13
2023-05-14T06:45:43.540Z,26.27
2023-05-14T06:48:13.460Z,26.03
2023-05-14T06:50:43.924Z,27.67
2023-05-14T06:53:12.958Z,23.37
2023-05-14T06:55:42.054Z,23.50
2023-05-14T06:58:11.204Z,23.00
2023-05-14T07:00:40.177Z,27.40
2023-05-14T07:03:09.101Z,22.40
2023-05-14T07:05:38.070Z,24.17
2023-05-14T07:08:27.046Z,16.10
2023-05-14T07:10:56.482Z,22.30
2023-05-14T07:13:28.303Z,15.40
2023-05-14T07:15:57.767Z,13.33
2023-05-14T07:18:26.620Z,21.27
2023-05-14T07:20:55.562Z,15.37
2023-05-14T07:23:24.535Z,17.40
2023-05-14T07:25:55.043Z,18.77
2023-05-14T07:28:23.959Z,19.47
2023-05-14T07:30:52.952Z,15.57
2023-05-14T07:33:22.077Z,18.57
2023-05-14T07:35:51.077Z,16.57
2023-05-14T07:38:21.281Z,16.37
2023-05-14T07:40:50.298Z,13.00
2023-05-14T07:43:20.589Z,19.10
2023-05-14T07:45:49.708Z,14.57
2023-05-14T07:48:18.783Z,10.03
2023-05-14T07:50:47.633Z,13.63
2023-05-14T07:53:16.540Z,21.50
2023-05-14T07:55:48.455Z,16.73
2023-05-14T07:58:17.462Z,9.17
2023-05-14T08:00:47.873Z,7.50
2023-05-14T08:03:16.882Z,11.53
2023-05-14T08:05:46.104Z,10.07
2023-05-14T08:08:15.053Z,9.67
2023-05-14T08:10:43.910Z,9.13
2023-05-14T08:13:12.880Z,7.77
2023-05-14T08:15:41.707Z,11.87
2023-05-14T08:18:12.228Z,10.33
2023-05-14T08:20:41.176Z,6.63
2023-05-14T08:23:10.030Z,8.03
2023-05-14T08:25:38.856Z,19.67
2023-05-14T08:28:08.743Z,12.80
2023-05-14T08:30:37.706Z,10.50
2023-05-14T08:33:07.230Z,19.53
2023-05-14T08:35:37.663Z,6.53
2023-05-14T08:38:06.656Z,6.30
2023-05-14T08:40:35.579Z,8.43
2023-05-14T08:43:05.034Z,10.77
2023-05-14T08:45:35.298Z,12.30
2023-05-14T08:48:09.254Z,8.80
2023-05-14T08:50:39.778Z,4.97
2023-05-14T08:53:08.829Z,6.13
2023-05-14T08:55:39.118Z,5.27
2023-05-14T08:58:08.272Z,8.00
2023-05-14T09:00:37.601Z,7.03
2023-05-14T09:03:08.203Z,6.03
2023-05-14T09:05:39.223Z,8.43
2023-05-14T09:08:08.461Z,17.57
2023-05-14T09:10:37.517Z,7.23
2023-05-14T09:13:07.867Z,6.93
2023-05-14T09:15:38.141Z,8.27
2023-05-14T09:18:08.663Z,10.53
2023-05-14T09:20:40.311Z,14.23
2023-05-14T09:23:09.196Z,7.40
2023-05-14T09:25:38.122Z,7.43
2023-05-14T09:28:17.860Z,5.03
2023-05-14T09:30:52.343Z,6.30
2023-05-14T09:33:28.767Z,6.50
2023-05-14T09:36:01.515Z,6.93
2023-05-14T09:38:31.467Z,8.20
2023-05-14T09:41:00.909Z,7.17
2023-05-14T09:43:29.774Z,9.77
2023-05-14T09:45:58.724Z,7.43
2023-05-14T09:48:27.765Z,10.43
2023-05-14T09:50:57.041Z,8.70
2023-05-14T09:53:27.519Z,8.80
2023-05-14T09:56:16.676Z,11.67
2023-05-14T09:58:45.492Z,8.67
2023-05-14T10:01:16.294Z,13.90
2023-05-14T10:03:45.746Z,13.43
2023-05-14T10:06:17.217Z,12.40
2023-05-14T10:08:50.051Z,12.60
2023-05-14T10:11:22.564Z,13.47
2023-05-14T10:14:04.152Z,14.10
2023-05-14T10:16:35.785Z,10.37
2023-05-14T10:19:09.517Z,8.90
2023-05-14T10:21:39.935Z,12.33
2023-05-14T10:24:29.441Z,15.47
2023-05-14T10:26:58.945Z,10.27
2023-05-14T10:29:34.882Z,15.37
2023-05-14T10:32:07.427Z,15.00
2023-05-14T10:34:41.690Z,15.67
2023-05-14T10:37:12.706Z,11.27
2023-05-14T10:39:51.391Z,13.80
2023-05-14T10:42:21.883Z,13.20
2023-05-14T10:44:54.327Z,12.83
2023-05-14T10:47:24.082Z,13.17
2023-05-14T10:49:56.025Z,13.23
2023-05-14T10:52:25.715Z,13.80
2023-05-14T10:54:59.142Z,13.63
2023-05-14T10:57:31.741Z,14.33
2023-05-14T11:00:02.230Z,12.83
2023-05-14T11:02:32.998Z,9.93
2023-05-14T11:05:20.477Z,9.60
2023-05-14T11:07:50.810Z,11.37
2023-05-14T11:10:22.925Z,9.60
2023-05-14T11:12:53.142Z,11.17
2023-05-14T11:15:23.210Z,16.40
2023-05-14T11:17:53.295Z,10.97
2023-05-14T11:20:23.224Z,11.13
2023-05-14T11:22:52.934Z,12.23
2023-05-14T11:25:25.931Z,14.33
2023-05-14T11:27:58.764Z,11.80
2023-05-14T11:30:27.826Z,12.43
2023-05-14T11:32:59.249Z,10.20
2023-05-14T11:35:29.656Z,10.90
2023-05-14T11:37:58.562Z,11.53
2023-05-14T11:40:28.953Z,11.20
2023-05-14T11:42:57.916Z,14.60
2023-05-14T11:45:27.634Z,11.17
2023-05-14T11:47:56.599Z,11.10
2023-05-14T11:50:25.812Z,9.10
2023-05-14T11:52:58.450Z,9.57
2023-05-14T11:55:29.198Z,11.77
2023-05-14T11:57:58.448Z,12.17
2023-05-14T12:00:28.715Z,10.70
2023-05-14T12:02:57.835Z,8.83
2023-05-14T12:05:27.024Z,7.23
2023-05-14T12:07:56.336Z,10.60
2023-05-14T12:10:26.156Z,13.13
2023-05-14T12:12:56.791Z,10.87
2023-05-14T12:15:27.090Z,8.37
2023-05-14T12:17:56.268Z,13.07
2023-05-14T12:20:26.493Z,7.03
2023-05-14T12:22:55.510Z,11.77
2023-05-14T12:25:27.072Z,9.67
2023-05-14T12:27:57.495Z,10.20
2023-05-14T12:30:26.861Z,17.20
2023-05-14T12:32:55.752Z,8.43
2023-05-14T12:35:24.884Z,12.27
2023-05-14T12:37:55.634Z,11.30
2023-05-14T12:40:24.871Z,5.83
2023-05-14T12:42:55.473Z,25.37
2023-05-14T12:45:26.995Z,8.83
2023-05-14T12:47:55.943Z,10.47
2023-05-14T12:50:25.159Z,8.63
2023-05-14T12:52:54.311Z,10.50
2023-05-14T12:55:23.314Z,9.70
2023-05-14T12:57:52.298Z,13.27
2023-05-14T13:00:21.910Z,12.63
2023-05-14T13:03:11.052Z,8.03
2023-05-14T13:05:40.092Z,8.43
2023-05-14T13:08:09.067Z,7.17
2023-05-14T13:10:38.159Z,5.80
2023-05-14T13:13:07.074Z,10.50
2023-05-14T13:15:37.632Z,14.20
2023-05-14T13:18:08.015Z,20.40
2023-05-14T13:20:38.417Z,15.60
2023-05-14T13:23:07.462Z,15.00
2023-05-14T13:25:37.438Z,11.97
2023-05-14T13:28:06.801Z,51.00
2023-05-14T13:30:36.353Z,12.53
2023-05-14T13:33:05.692Z,10.07
2023-05-14T13:35:35.624Z,8.97
2023-05-14T13:38:08.174Z,10.40
2023-05-14T13:40:37.200Z,14.47
2023-05-14T13:43:06.058Z,10.97
2023-05-14T13:45:34.848Z,11.23
2023-05-14T13:48:04.041Z,7.13
2023-05-14T13:50:32.885Z,13.17
2023-05-14T13:53:01.816Z,11.90
2023-05-14T13:55:32.470Z,17.93
2023-05-14T13:58:04.044Z,11.70
2023-05-14T14:00:33.024Z,16.30
2023-05-14T14:03:01.939Z,12.33
2023-05-14T14:05:31.834Z,13.20
2023-05-14T14:08:12.792Z,11.50
2023-05-14T14:10:51.266Z,10.97
2023-05-14T14:13:21.485Z,7.03
2023-05-14T14:15:50.662Z,11.07
2023-05-14T14:18:19.552Z,13.57
2023-05-14T14:20:48.407Z,13.37
2023-05-14T14:23:17.365Z,9.83
2023-05-14T14:25:46.643Z,8.30
2023-05-14T14:28:16.909Z,11.83
2023-05-14T14:30:45.944Z,9.07
2023-05-14T14:33:14.966Z,11.93
2023-05-14T14:35:43.980Z,8.97
2023-05-14T14:38:12.902Z,19.37
2023-05-14T14:40:41.766Z,10.30
2023-05-14T14:43:11.060Z,14.07
2023-05-14T14:45:42.934Z,13.10
2023-05-14T14:48:26.119Z,15.00
2023-05-14T14:50:55.642Z,9.63
2023-05-14T14:53:25.152Z,10.43
2023-05-14T14:55:54.358Z,12.13
2023-05-14T14:58:23.595Z,11.53
2023-05-14T15:00:56.119Z,11.30
2023-05-14T15:03:26.430Z,19.57
2023-05-14T15:05:55.653Z,14.03
2023-05-14T15:08:28.220Z,9.03
2023-05-14T15:10:58.065Z,10.53
2023-05-14T15:13:27.272Z,10.37
2023-05-14T15:15:57.646Z,10.43
2023-05-14T15:18:27.246Z,12.60
2023-05-14T15:20:56.163Z,11.83
2023-05-14T15:23:25.114Z,13.33
2023-05-14T15:26:12.375Z,15.43
2023-05-14T15:28:41.340Z,29.03
2023-05-14T15:31:12.105Z,23.50
2023-05-14T15:33:41.986Z,21.77
2023-05-14T15:36:11.380Z,21.80
2023-05-14T15:38:40.901Z,20.40
2023-05-14T15:41:10.008Z,18.43
2023-05-14T15:43:38.863Z,18.43
2023-05-14T15:46:07.889Z,20.87
2023-05-14T15:48:38.192Z,20.00
2023-05-14T15:51:07.212Z,16.70
2023-05-14T15:53:36.014Z,20.00
2023-05-14T15:56:04.951Z,13.03
2023-05-14T15:58:33.868Z,15.43
2023-05-14T16:01:02.995Z,12.97
2023-05-14T16:03:32.041Z,16.17
2023-05-14T16:06:02.440Z,12.60
2023-05-14T16:08:31.487Z,14.77
2023-05-14T16:11:00.324Z,15.90
2023-05-14T16:13:29.334Z,15.00
2023-05-14T16:15:59.687Z,11.83
2023-05-14T16:18:28.802Z,13.13
2023-05-14T16:20:58.176Z,22.03
2023-05-14T16:23:28.715Z,30.83
2023-05-14T16:25:58.017Z,25.13
2023-05-14T16:28:28.964Z,25.77
2023-05-14T16:30:58.022Z,26.40
2023-05-14T16:33:26.911Z,21.63
2023-05-14T16:35:55.911Z,15.10
2023-05-14T16:38:24.822Z,18.33
2023-05-14T16:40:55.021Z,17.67
2023-05-14T16:43:24.018Z,22.73
2023-05-14T16:45:52.867Z,18.57
2023-05-14T16:48:24.120Z,13.73
2023-05-14T16:50:53.145Z,19.37
2023-05-14T16:53:21.930Z,15.50
2023-05-14T16:55:51.227Z,9.53
2023-05-14T16:58:21.657Z,12.30
2023-05-14T17:00:50.882Z,12.17
2023-05-14T17:03:21.433Z,10.83
2023-05-14T17:05:51.842Z,17.43
2023-05-14T17:08:20.838Z,15.40
2023-05-14T17:10:50.093Z,11.50
2023-05-14T17:13:20.678Z,15.97
2023-05-14T17:15:49.669Z,15.80
2023-05-14T17:18:18.594Z,16.13
2023-05-14T17:20:47.629Z,53.00
2023-05-14T17:23:17.362Z,48.73
2023-05-14T17:25:46.232Z,68.67
2023-05-14T17:28:15.107Z,58.33
2023-05-14T17:30:45.926Z,50.93
2023-05-14T17:33:18.437Z,43.67
2023-05-14T17:35:47.949Z,37.33
2023-05-14T17:38:22.253Z,39.53
2023-05-14T17:40:51.135Z,34.63
2023-05-14T17:43:21.489Z,32.13
2023-05-14T17:45:54.217Z,25.30
2023-05-14T17:48:24.233Z,21.93
2023-05-14T17:50:53.533Z,21.93
2023-05-14T17:53:22.286Z,15.27
2023-05-14T17:55:51.693Z,15.40
2023-05-14T17:58:20.637Z,16.33
2023-05-14T18:00:50.989Z,24.10
2023-05-14T18:03:20.628Z,27.20
2023-05-14T18:05:49.789Z,14.40
2023-05-14T18:08:18.820Z,20.63
2023-05-14T18:10:49.888Z,11.50
2023-05-14T18:13:18.857Z,12.40
2023-05-14T18:15:47.820Z,11.27
2023-05-14T18:18:18.982Z,12.23
2023-05-14T18:20:47.796Z,11.30
2023-05-14T18:23:16.718Z,12.83
2023-05-14T18:25:45.686Z,13.17
2023-05-14T18:28:14.597Z,11.53
2023-05-14T18:30:43.719Z,11.70
2023-05-14T18:33:12.672Z,16.30
2023-05-14T18:35:43.739Z,10.77
2023-05-14T18:38:13.968Z,10.40
2023-05-14T18:40:43.239Z,11.83
2023-05-14T18:43:13.565Z,13.07
2023-05-14T18:45:44.348Z,16.77
2023-05-14T18:48:33.041Z,15.40
2023-05-14T18:51:03.402Z,22.20
2023-05-14T18:53:32.460Z,16.60
2023-05-14T18:56:02.025Z,15.70
2023-05-14T18:58:32.797Z,13.00
2023-05-14T19:01:01.964Z,12.67
2023-05-14T19:03:42.599Z,12.10
2023-05-14T19:06:12.986Z,14.37
2023-05-14T19:08:42.816Z,13.20
2023-05-14T19:11:11.756Z,14.07
2023-05-14T19:13:40.623Z,19.17
2023-05-14T19:16:11.385Z,12.10
2023-05-14T19:18:40.534Z,15.43
2023-05-14T19:21:09.591Z,26.80
2023-05-14T19:23:39.882Z,20.37
2023-05-14T19:26:12.506Z,19.73
2023-05-14T19:28:42.136Z,15.97
2023-05-14T19:31:17.850Z,15.93
2023-05-14T19:33:48.086Z,29.47
2023-05-14T19:36:17.106Z,24.17
2023-05-14T19:38:47.347Z,23.83
2023-05-14T19:41:19.954Z,20.93
2023-05-14T19:43:49.020Z,20.57
2023-05-14T19:46:20.922Z,21.33
2023-05-14T19:48:51.458Z,20.17
2023-05-14T19:51:20.642Z,28.63
2023-05-14T19:53:51.051Z,27.33
2023-05-14T19:56:30.495Z,32.33
2023-05-14T19:59:02.172Z,25.93
2023-05-14T20:01:31.316Z,28.93
2023-05-14T20:04:00.380Z,28.83
2023-05-14T20:06:29.517Z,25.23
2023-05-14T20:09:06.103Z,27.73
2023-05-14T20:11:35.205Z,28.93
2023-05-14T20:14:04.065Z,30.33
2023-05-14T20:16:33.340Z,26.53
2023-05-14T20:19:02.463Z,26.73
2023-05-14T20:21:32.140Z,22.97
2023-05-14T20:24:03.304Z,26.87
2023-05-14T20:26:32.565Z,28.57
2023-05-14T20:29:01.405Z,37.20
2023-05-14T20:31:30.310Z,28.67
2023-05-14T20:34:01.452Z,29.73
2023-05-14T20:36:31.074Z,28.97
2023-05-14T20:39:01.855Z,24.63
2023-05-14T20:41:30.933Z,24.20
2023-05-14T20:43:59.834Z,24.67
2023-05-14T20:46:28.752Z,26.20
2023-05-14T20:48:58.780Z,23.77
2023-05-14T20:51:27.816Z,26.47
2023-05-14T20:53:56.708Z,23.70
2023-05-14T20:56:27.633Z,27.93
2023-05-14T20:58:58.887Z,23.07
2023-05-14T21:01:28.096Z,22.53
2023-05-14T21:03:57.177Z,25.07
2023-05-14T21:06:26.096Z,25.17
2023-05-14T21:08:55.337Z,24.87
2023-05-14T21:11:24.830Z,23.60
2023-05-14T21:13:55.407Z,24.93
2023-05-14T21:16:24.617Z,27.03
2023-05-14T21:18:53.832Z,23.70
2023-05-14T21:21:23.024Z,29.40
2023-05-14T21:23:52.170Z,30.10
2023-05-14T21:26:23.105Z,30.87
2023-05-14T21:28:52.356Z,26.80
2023-05-14T21:31:25.922Z,27.37
2023-05-14T21:33:54.933Z,32.57
2023-05-14T21:36:24.631Z,26.90
2023-05-14T21:38:54.890Z,30.23
2023-05-14T21:41:24.711Z,29.73
2023-05-14T21:43:54.235Z,31.47
2023-05-14T21:46:25.893Z,36.27
2023-05-14T21:48:54.838Z,25.20
2023-05-14T21:51:23.919Z,25.73
2023-05-14T21:53:52.942Z,26.50
2023-05-14T21:56:22.789Z,26.13
2023-05-14T21:58:51.850Z,28.03
2023-05-14T22:01:20.796Z,24.70
2023-05-14T22:03:51.297Z,27.40
2023-05-14T22:06:21.176Z,24.80
2023-05-14T22:08:50.364Z,27.07
2023-05-14T22:11:19.612Z,28.30
2023-05-14T22:13:48.883Z,29.03
2023-05-14T22:16:18.089Z,29.83
2023-05-14T22:18:47.974Z,30.90
2023-05-14T22:21:20.076Z,40.67
2023-05-14T22:23:50.486Z,54.60
2023-05-14T22:26:19.518Z,48.10
2023-05-14T22:28:49.842Z,41.13
2023-05-14T22:31:19.690Z,43.40
2023-05-14T22:33:48.960Z,30.57
2023-05-14T22:36:19.471Z,30.40
2023-05-14T22:38:48.299Z,32.60
2023-05-14T22:41:17.724Z,31.73
2023-05-14T22:43:48.793Z,29.40
2023-05-14T22:46:17.713Z,29.80
2023-05-14T22:48:49.299Z,30.47
2023-05-14T22:51:19.769Z,30.50
2023-05-14T22:53:48.935Z,30.10
2023-05-14T22:56:20.582Z,31.00
2023-05-14T22:58:49.675Z,29.47
2023-05-14T23:01:18.959Z,30.50
2023-05-14T23:03:47.890Z,27.67
2023-05-14T23:06:16.960Z,27.17
2023-05-14T23:08:47.466Z,28.53
2023-05-14T23:11:16.889Z,30.80
2023-05-14T23:13:45.721Z,27.93
2023-05-14T23:16:14.687Z,28.47
2023-05-14T23:18:44.186Z,28.97
2023-05-14T23:21:13.691Z,31.27
2023-05-14T23:23:42.624Z,28.67
2023-05-14T23:26:13.281Z,28.40
2023-05-14T23:28:42.285Z,28.40
2023-05-14T23:31:11.212Z,27.63
2023-05-14T23:33:40.492Z,32.43
2023-05-14T23:36:11.391Z,27.43
2023-05-14T23:38:40.932Z,28.83
2023-05-14T23:41:09.908Z,27.90
2023-05-14T23:43:40.544Z,29.23
2023-05-14T23:46:09.696Z,27.70
2023-05-14T23:48:38.702Z,28.17
2023-05-14T23:51:07.869Z,29.70
2023-05-14T23:53:37.130Z,28.63
2023-05-14T23:56:06.208Z,29.07
2023-05-14T23:58:35.329Z,26.93
